createdAt,value
2023-05-01T00:02:10.620Z,6.75
2023-05-01T00:04:37.630Z,5.85
2023-05-01T00:07:04.768Z,5.53
2023-05-01T00:09:32.344Z,6.63
2023-05-01T00:11:59.238Z,5.05
2023-05-01T00:14:26.049Z,6.30
2023-05-01T00:16:53.034Z,5.85
2023-05-01T00:19:20.176Z,6.57
2023-05-01T00:21:48.457Z,7.93
2023-05-01T00:24:17.349Z,5.05
2023-05-01T00:26:47.062Z,6.07
2023-05-01T00:29:14.417Z,5.70
2023-05-01T00:31:42.750Z,4.57
2023-05-01T00:34:11.622Z,10.18
2023-05-01T00:36:38.798Z,7.97
2023-05-01T00:39:07.954Z,5.50
2023-05-01T00:41:37.721Z,7.82
2023-05-01T00:44:04.916Z,6.03
2023-05-01T00:46:32.493Z,6.93
2023-05-01T00:49:00.073Z,5.47
2023-05-01T00:51:29.434Z,4.65
2023-05-01T00:53:56.670Z,6.53
2023-05-01T00:56:23.527Z,5.60
2023-05-01T00:58:54.196Z,6.72
2023-05-01T01:01:21.934Z,4.55
2023-05-01T01:03:49.301Z,5.55
2023-05-01T01:06:33.591Z,6.20
2023-05-01T01:11:51.528Z,5.40
2023-05-01T01:14:25.198Z,5.50
2023-05-01T01:16:57.573Z,4.93
2023-05-01T01:19:42.830Z,5.60
2023-05-01T01:22:15.493Z,7.20
2023-05-01T01:25:16.022Z,4.78
2023-05-01T01:28:23.341Z,6.82
2023-05-01T01:31:14.364Z,4.95
2023-05-01T01:33:49.255Z,4.97
2023-05-01T01:36:20.428Z,5.03
2023-05-01T01:39:12.007Z,5.68
2023-05-01T01:41:41.530Z,5.65
2023-05-01T01:44:15.945Z,4.13
2023-05-01T01:46:43.278Z,4.53
2023-05-01T01:49:20.256Z,5.25
2023-05-01T01:51:50.103Z,5.05
2023-05-01T01:54:26.699Z,4.68
2023-05-01T01:56:55.426Z,4.07
2023-05-01T01:59:24.482Z,6.10
2023-05-01T02:01:53.625Z,5.20
2023-05-01T02:04:22.387Z,5.65
2023-05-01T02:06:50.074Z,5.45
2023-05-01T02:09:19.564Z,6.13
2023-05-01T02:11:47.183Z,7.47
2023-05-01T02:14:16.369Z,4.40
2023-05-01T02:16:45.147Z,4.18
2023-05-01T02:19:14.822Z,4.40
2023-05-01T02:21:42.906Z,4.03
2023-05-01T02:24:12.332Z,3.90
2023-05-01T02:26:49.252Z,3.90
2023-05-01T02:29:16.241Z,3.60
2023-05-01T02:31:43.939Z,4.05
2023-05-01T02:34:11.572Z,20.15
2023-05-01T02:36:38.474Z,7.10
2023-05-01T02:39:05.741Z,5.28
2023-05-01T02:41:35.298Z,5.97
2023-05-01T02:44:05.895Z,6.15
2023-05-01T02:46:36.989Z,6.95
2023-05-01T02:49:06.030Z,5.63
2023-05-01T02:51:35.053Z,4.43
2023-05-01T02:54:03.395Z,5.38
2023-05-01T02:56:31.570Z,6.18
2023-05-01T02:58:58.515Z,6.20
2023-05-01T03:01:26.013Z,3.83
2023-05-01T03:03:53.064Z,4.30
2023-05-01T03:06:20.123Z,5.47
2023-05-01T03:08:47.935Z,4.25
2023-05-01T03:11:15.741Z,4.25
2023-05-01T03:13:42.602Z,7.20
2023-05-01T03:16:09.538Z,4.68
2023-05-01T03:18:36.639Z,11.32
2023-05-01T03:21:03.867Z,10.10
2023-05-01T03:23:31.664Z,4.75
2023-05-01T03:25:59.583Z,6.22
2023-05-01T03:28:26.532Z,7.28
2023-05-01T03:30:53.602Z,6.18
2023-05-01T03:33:20.630Z,5.55
2023-05-01T03:35:48.089Z,5.45
2023-05-01T03:38:18.091Z,6.43
2023-05-01T03:41:05.443Z,6.57
2023-05-01T03:43:51.161Z,6.53
2023-05-01T03:46:38.484Z,9.27
2023-05-01T03:49:07.640Z,5.13
2023-05-01T03:51:42.519Z,6.38
2023-05-01T03:54:09.337Z,3.83
2023-05-01T03:56:51.961Z,7.50
2023-05-01T03:59:19.983Z,4.72
2023-05-01T04:01:46.827Z,6.18
2023-05-01T04:04:14.097Z,6.75
2023-05-01T04:06:44.833Z,6.70
2023-05-01T04:09:12.446Z,6.25
2023-05-01T04:11:39.244Z,7.78
2023-05-01T04:14:06.157Z,5.88
2023-05-01T04:16:36.154Z,5.47
2023-05-01T04:19:03.672Z,5.15
2023-05-01T04:21:32.945Z,6.00
2023-05-01T04:24:00.126Z,4.90
2023-05-01T04:26:29.763Z,4.80
2023-05-01T04:28:56.624Z,8.52
2023-05-01T04:31:25.743Z,4.78
2023-05-01T04:33:52.932Z,6.35
2023-05-01T04:36:20.385Z,5.93
2023-05-01T04:38:47.293Z,7.30
2023-05-01T04:41:14.307Z,5.00
2023-05-01T04:43:41.199Z,5.88
2023-05-01T04:46:08.918Z,5.50
2023-05-01T04:48:36.401Z,7.22
2023-05-01T04:51:04.222Z,7.95
2023-05-01T04:53:33.980Z,10.32
2023-05-01T04:56:02.525Z,8.60
2023-05-01T04:58:31.023Z,7.43
2023-05-01T05:01:03.131Z,5.05
2023-05-01T05:03:30.146Z,4.97
2023-05-01T05:05:57.609Z,5.55
2023-05-01T05:08:24.503Z,4.85
2023-05-01T05:11:01.363Z,5.93
2023-05-01T05:13:37.541Z,5.75
2023-05-01T05:16:11.052Z,4.35
2023-05-01T05:18:39.013Z,5.03
2023-05-01T05:21:06.905Z,16.67
2023-05-01T05:23:33.877Z,5.47
2023-05-01T05:26:04.066Z,6.10
2023-05-01T05:28:31.553Z,40.45
2023-05-01T05:30:58.987Z,12.35
2023-05-01T05:33:27.322Z,8.25
2023-05-01T05:35:55.241Z,5.68
2023-05-01T05:38:26.150Z,5.07
2023-05-01T05:40:56.308Z,5.15
2023-05-01T05:43:26.604Z,7.90
2023-05-01T05:45:59.320Z,25.60
2023-05-01T05:48:27.887Z,6.60
2023-05-01T05:50:55.095Z,6.65
2023-05-01T05:53:24.278Z,6.70
2023-05-01T05:55:53.413Z,7.53
2023-05-01T05:58:20.387Z,7.18
2023-05-01T06:00:56.123Z,8.35
2023-05-01T06:03:23.717Z,25.70
2023-05-01T06:05:53.639Z,9.45
2023-05-01T06:08:20.590Z,7.95
2023-05-01T06:10:48.091Z,9.27
2023-05-01T06:13:15.612Z,8.00
2023-05-01T06:15:46.207Z,8.90
2023-05-01T06:18:13.337Z,6.85
2023-05-01T06:20:40.597Z,9.52
2023-05-01T06:23:10.191Z,8.80
2023-05-01T06:26:10.914Z,9.30
2023-05-01T06:28:38.000Z,8.32
2023-05-01T06:31:05.700Z,8.18
2023-05-01T06:33:36.935Z,6.03
2023-05-01T06:36:15.608Z,14.48
2023-05-01T06:38:48.687Z,9.50
2023-05-01T06:41:17.038Z,8.27
2023-05-01T06:43:45.242Z,10.27
2023-05-01T06:46:12.657Z,7.13
2023-05-01T06:48:39.615Z,13.88
2023-05-01T06:51:06.525Z,5.07
2023-05-01T06:53:33.450Z,8.45
2023-05-01T06:56:00.403Z,7.72
2023-05-01T06:58:27.372Z,11.15
2023-05-01T07:00:54.723Z,10.93
2023-05-01T07:03:24.772Z,8.95
2023-05-01T07:05:51.605Z,7.82
2023-05-01T07:08:18.387Z,11.25
2023-05-01T07:10:45.424Z,10.50
2023-05-01T07:13:12.311Z,9.63
2023-05-01T07:15:39.177Z,10.88
2023-05-01T07:18:06.283Z,10.43
2023-05-01T07:20:34.203Z,7.65
2023-05-01T07:23:01.064Z,10.82
2023-05-01T07:25:28.032Z,12.32
2023-05-01T07:27:55.058Z,11.02
2023-05-01T07:30:22.022Z,13.57
2023-05-01T07:32:49.050Z,13.52
2023-05-01T07:35:15.945Z,16.38
2023-05-01T07:37:43.084Z,17.95
2023-05-01T07:40:10.443Z,13.15
2023-05-01T07:42:37.240Z,15.63
2023-05-01T07:45:04.371Z,11.98
2023-05-01T07:47:31.203Z,6.95
2023-05-01T07:49:58.499Z,6.80
2023-05-01T07:52:26.281Z,6.03
2023-05-01T07:54:53.468Z,4.53
2023-05-01T07:57:20.540Z,4.15
2023-05-01T07:59:47.877Z,6.93
2023-05-01T08:02:17.583Z,4.80
2023-05-01T08:04:46.208Z,5.40
2023-05-01T08:07:13.075Z,5.43
2023-05-01T08:09:39.962Z,7.15
2023-05-01T08:12:07.157Z,3.22
2023-05-01T08:14:34.074Z,5.28
2023-05-01T08:17:00.924Z,6.00
2023-05-01T08:19:28.121Z,5.57
2023-05-01T08:21:54.969Z,4.55
2023-05-01T08:24:21.812Z,3.67
2023-05-01T08:26:49.044Z,6.90
2023-05-01T08:29:15.966Z,4.05
2023-05-01T08:31:43.948Z,3.42
2023-05-01T08:34:10.991Z,5.43
2023-05-01T08:36:38.373Z,4.82
2023-05-01T08:39:05.466Z,3.38
2023-05-01T08:41:32.968Z,8.40
2023-05-01T08:44:04.291Z,4.80
2023-05-01T08:46:44.825Z,5.45
2023-05-01T08:49:16.812Z,3.70
2023-05-01T08:51:50.097Z,3.70
2023-05-01T08:54:19.912Z,3.92
2023-05-01T08:56:47.627Z,7.13
2023-05-01T08:59:16.018Z,7.40
2023-05-01T09:01:44.500Z,4.85
2023-05-01T09:04:12.177Z,5.50
2023-05-01T09:06:39.589Z,5.00
2023-05-01T09:09:06.746Z,8.25
2023-05-01T09:11:33.775Z,4.95
2023-05-01T09:14:01.894Z,3.67
2023-05-01T09:16:29.814Z,3.67
2023-05-01T09:18:59.457Z,4.63
2023-05-01T09:21:28.376Z,6.22
2023-05-01T09:23:55.284Z,3.67
2023-05-01T09:26:22.089Z,3.15
2023-05-01T09:28:49.021Z,5.00
2023-05-01T09:31:25.672Z,5.70
2023-05-01T09:33:54.728Z,6.13
2023-05-01T09:36:23.716Z,3.88
2023-05-01T09:38:51.266Z,5.15
2023-05-01T09:41:20.972Z,6.55
2023-05-01T09:43:55.557Z,5.22
2023-05-01T09:46:24.621Z,4.15
2023-05-01T09:49:03.381Z,3.38
2023-05-01T09:51:33.096Z,4.18
2023-05-01T09:54:02.612Z,6.10
2023-05-01T09:56:34.461Z,3.92
2023-05-01T09:59:19.641Z,3.40
2023-05-01T10:01:49.474Z,5.38
2023-05-01T10:04:16.491Z,5.22
2023-05-01T10:06:43.805Z,2.95
2023-05-01T10:09:17.842Z,3.58
2023-05-01T10:11:55.878Z,9.13
2023-05-01T10:14:28.253Z,4.28
2023-05-01T10:16:57.979Z,5.68
2023-05-01T10:19:25.307Z,4.10
2023-05-01T10:21:53.573Z,5.55
2023-05-01T10:24:21.004Z,3.53
2023-05-01T10:26:50.096Z,5.45
2023-05-01T10:29:19.541Z,4.45
2023-05-01T10:31:46.642Z,3.70
2023-05-01T10:34:18.322Z,6.80
2023-05-01T10:36:54.893Z,3.67
2023-05-01T10:39:36.278Z,4.85
2023-05-01T10:42:16.653Z,3.78
2023-05-01T10:44:44.291Z,4.00
2023-05-01T10:47:27.902Z,5.63
2023-05-01T10:52:51.671Z,6.32
2023-05-01T10:55:35.308Z,4.57
2023-05-01T11:00:29.161Z,5.35
2023-05-01T11:03:25.529Z,3.80
2023-05-01T11:06:03.125Z,3.83
2023-05-01T11:10:57.364Z,5.03
2023-05-01T11:14:01.698Z,3.85
2023-05-01T11:16:40.755Z,7.05
2023-05-01T11:19:09.802Z,4.28
2023-05-01T11:21:38.946Z,5.47
2023-05-01T11:24:09.331Z,5.45
2023-05-01T11:26:41.188Z,6.45
2023-05-01T11:29:10.501Z,10.23
2023-05-01T11:31:37.901Z,4.13
2023-05-01T11:34:07.227Z,3.33
2023-05-01T11:39:01.069Z,4.05
2023-05-01T11:41:28.537Z,2.78
2023-05-01T11:43:58.262Z,4.63
2023-05-01T11:46:29.633Z,3.25
2023-05-01T11:48:57.710Z,4.55
2023-05-01T11:51:26.848Z,5.18
2023-05-01T11:54:08.088Z,4.95
2023-05-01T11:56:36.836Z,7.03
2023-05-01T11:59:17.225Z,3.40
2023-05-01T12:01:46.057Z,4.40
2023-05-01T12:04:23.222Z,4.38
2023-05-01T12:06:51.456Z,4.95
2023-05-01T12:09:38.643Z,6.30
2023-05-01T12:12:06.051Z,5.72
2023-05-01T12:14:33.255Z,3.78
2023-05-01T12:17:00.377Z,4.30
2023-05-01T12:19:27.286Z,5.47
2023-05-01T12:22:14.466Z,8.68
2023-05-01T12:24:54.353Z,3.92
2023-05-01T12:27:21.473Z,4.72
2023-05-01T12:29:48.435Z,6.38
2023-05-01T12:32:17.007Z,2.85
2023-05-01T12:34:43.939Z,2.78
2023-05-01T12:37:11.230Z,3.63
2023-05-01T12:39:44.786Z,4.90
2023-05-01T12:42:14.320Z,4.97
2023-05-01T12:44:41.442Z,5.28
2023-05-01T12:47:09.878Z,3.22
2023-05-01T12:49:37.800Z,7.60
2023-05-01T12:52:07.561Z,6.82
2023-05-01T12:54:39.871Z,4.68
2023-05-01T12:57:16.662Z,3.10
2023-05-01T12:59:45.787Z,8.00
2023-05-01T13:02:16.253Z,3.42
2023-05-01T13:04:44.198Z,8.10
2023-05-01T13:07:16.686Z,3.33
2023-05-01T13:09:57.943Z,5.55
2023-05-01T13:12:26.822Z,4.20
2023-05-01T13:14:54.625Z,4.47
2023-05-01T13:17:32.294Z,3.30
2023-05-01T13:20:05.096Z,3.28
2023-05-01T13:22:34.242Z,3.53
2023-05-01T13:25:03.965Z,7.18
2023-05-01T13:27:30.892Z,6.10
2023-05-01T13:29:59.904Z,4.50
2023-05-01T13:32:28.440Z,7.30
2023-05-01T13:34:56.204Z,5.85
2023-05-01T13:37:23.247Z,6.68
2023-05-01T13:39:50.087Z,3.75
2023-05-01T13:42:25.897Z,3.58
2023-05-01T13:44:57.485Z,5.57
2023-05-01T13:47:28.999Z,3.20
2023-05-01T13:49:56.730Z,7.70
2023-05-01T13:52:24.552Z,6.68
2023-05-01T13:54:55.993Z,3.17
2023-05-01T13:59:50.064Z,5.00
2023-05-01T14:02:25.303Z,3.40
2023-05-01T14:04:52.446Z,5.10
2023-05-01T14:07:21.079Z,6.28
2023-05-01T14:09:56.038Z,8.02
2023-05-01T14:12:31.369Z,4.75
2023-05-01T14:15:00.394Z,3.15
2023-05-01T14:17:33.378Z,4.05
2023-05-01T14:20:00.868Z,4.15
2023-05-01T14:22:43.774Z,3.10
2023-05-01T14:25:24.702Z,5.78
2023-05-01T14:27:53.799Z,5.30
2023-05-01T14:30:33.725Z,4.68
2023-05-01T14:33:06.794Z,3.08
2023-05-01T14:35:34.781Z,4.70
2023-05-01T14:38:09.165Z,4.55
2023-05-01T14:40:36.109Z,6.57
2023-05-01T14:43:03.664Z,4.13
2023-05-01T14:45:30.938Z,6.93
2023-05-01T14:47:58.095Z,2.92
2023-05-01T14:50:25.584Z,5.63
2023-05-01T14:52:57.426Z,4.80
2023-05-01T14:55:29.564Z,4.43
2023-05-01T14:57:57.102Z,3.08
2023-05-01T15:00:25.090Z,4.82
2023-05-01T15:02:52.252Z,5.18
2023-05-01T15:05:19.249Z,3.80
2023-05-01T15:07:46.894Z,3.00
2023-05-01T15:10:13.851Z,2.97
2023-05-01T15:12:40.866Z,4.18
2023-05-01T15:15:09.665Z,3.55
2023-05-01T15:17:36.790Z,7.38
2023-05-01T15:20:03.942Z,2.90
2023-05-01T15:22:31.373Z,3.22
2023-05-01T15:24:58.452Z,4.82
2023-05-01T15:27:26.666Z,4.38
2023-05-01T15:29:53.564Z,5.18
2023-05-01T15:32:20.405Z,6.93
2023-05-01T15:34:47.360Z,6.38
2023-05-01T15:37:14.272Z,6.50
2023-05-01T15:39:41.129Z,3.03
2023-05-01T15:42:08.157Z,5.55
2023-05-01T15:44:34.995Z,4.60
2023-05-01T15:47:02.040Z,5.25
2023-05-01T15:49:29.010Z,3.58
2023-05-01T15:51:56.161Z,4.55
2023-05-01T15:54:24.674Z,5.93
2023-05-01T15:56:51.707Z,4.13
2023-05-01T15:59:18.509Z,3.28
2023-05-01T16:01:45.536Z,2.95
2023-05-01T16:04:12.460Z,5.38
2023-05-01T16:06:40.959Z,3.58
2023-05-01T16:09:08.011Z,2.55
2023-05-01T16:11:35.788Z,4.95
2023-05-01T16:14:02.932Z,6.72
2023-05-01T16:16:30.129Z,2.30
2023-05-01T16:18:58.889Z,3.92
2023-05-01T16:21:27.322Z,4.72
2023-05-01T16:23:57.505Z,3.25
2023-05-01T16:26:28.386Z,7.18
2023-05-01T16:29:13.600Z,4.13
2023-05-01T16:31:47.644Z,2.70
2023-05-01T16:34:18.142Z,3.28
2023-05-01T16:36:46.905Z,3.97
2023-05-01T16:39:18.868Z,3.53
2023-05-01T16:41:50.576Z,3.90
2023-05-01T16:46:56.210Z,7.05
2023-05-01T16:51:50.924Z,7.82
2023-05-01T16:54:18.146Z,6.03
2023-05-01T16:56:45.000Z,5.13
2023-05-01T16:59:11.908Z,6.90
2023-05-01T17:01:38.741Z,11.75
2023-05-01T17:04:06.240Z,16.35
2023-05-01T17:06:33.494Z,44.40
2023-05-01T17:09:00.571Z,37.00
2023-05-01T17:11:29.122Z,35.53
2023-05-01T17:13:57.202Z,55.92
2023-05-01T17:16:24.177Z,96.40
2023-05-01T17:18:51.057Z,46.85
2023-05-01T17:21:18.609Z,7.30
2023-05-01T17:23:45.665Z,12.43
2023-05-01T17:26:15.949Z,13.15
2023-05-01T17:28:45.369Z,9.50
2023-05-01T17:31:12.341Z,8.25
2023-05-01T17:33:39.263Z,7.90
2023-05-01T17:36:06.318Z,4.60
2023-05-01T17:38:33.171Z,4.18
2023-05-01T17:41:00.115Z,7.75
2023-05-01T17:43:27.035Z,4.78
2023-05-01T17:45:53.931Z,18.35
2023-05-01T17:48:20.863Z,16.08
2023-05-01T17:50:47.761Z,10.70
2023-05-01T17:53:14.670Z,7.55
2023-05-01T17:55:41.732Z,7.90
2023-05-01T17:58:08.618Z,6.65
2023-05-01T18:00:35.780Z,5.97
2023-05-01T18:03:02.958Z,4.88
2023-05-01T18:05:30.042Z,7.63
2023-05-01T18:07:56.916Z,6.90
2023-05-01T18:10:23.941Z,7.25
2023-05-01T18:12:51.424Z,3.60
2023-05-01T18:15:22.586Z,4.85
2023-05-01T18:20:17.277Z,11.38
2023-05-01T18:22:44.471Z,6.38
2023-05-01T18:25:11.586Z,3.67
2023-05-01T18:27:38.956Z,28.15
2023-05-01T18:30:06.418Z,15.93
2023-05-01T18:32:46.300Z,5.22
2023-05-01T18:35:15.786Z,10.95
2023-05-01T18:37:44.135Z,10.38
2023-05-01T18:40:11.713Z,11.85
2023-05-01T18:42:41.275Z,4.93
2023-05-01T18:45:10.056Z,8.82
2023-05-01T18:47:37.021Z,13.77
2023-05-01T18:50:05.211Z,7.75
2023-05-01T18:52:32.166Z,6.80
2023-05-01T18:54:59.288Z,11.07
2023-05-01T18:57:27.774Z,12.73
2023-05-01T18:59:54.585Z,14.15
2023-05-01T19:02:21.601Z,8.88
2023-05-01T19:04:57.415Z,12.77
2023-05-01T19:07:26.619Z,9.30
2023-05-01T19:09:53.688Z,13.00
2023-05-01T19:12:20.653Z,17.70
2023-05-01T19:14:47.492Z,8.48
2023-05-01T19:17:14.362Z,8.82
2023-05-01T19:19:41.153Z,9.95
2023-05-01T19:22:08.110Z,9.82
2023-05-01T19:24:34.943Z,11.25
2023-05-01T19:27:03.501Z,12.27
2023-05-01T19:29:33.710Z,9.30
2023-05-01T19:32:00.713Z,10.27
2023-05-01T19:34:28.384Z,6.65
2023-05-01T19:36:57.116Z,4.97
2023-05-01T19:39:24.262Z,6.50
2023-05-01T19:41:51.356Z,4.55
2023-05-01T19:44:18.320Z,9.68
2023-05-01T19:46:45.276Z,3.58
2023-05-01T19:49:12.497Z,4.55
2023-05-01T19:51:39.288Z,5.72
2023-05-01T19:54:06.150Z,3.80
2023-05-01T19:56:32.992Z,5.70
2023-05-01T19:58:59.851Z,6.45
2023-05-01T20:01:29.845Z,11.18
2023-05-01T20:03:57.032Z,5.05
2023-05-01T20:06:23.964Z,5.47
2023-05-01T20:08:50.918Z,5.32
2023-05-01T20:11:17.908Z,6.03
2023-05-01T20:13:45.558Z,4.35
2023-05-01T20:16:12.508Z,6.13
2023-05-01T20:18:39.484Z,5.45
2023-05-01T20:21:07.585Z,3.05
2023-05-01T20:23:35.188Z,5.10
2023-05-01T20:26:02.094Z,6.53
2023-05-01T20:28:29.329Z,8.45
2023-05-01T20:30:56.787Z,6.72
2023-05-01T20:33:23.781Z,9.35
2023-05-01T20:35:51.462Z,4.82
2023-05-01T20:38:18.450Z,7.35
2023-05-01T20:40:45.282Z,6.55
2023-05-01T20:43:12.126Z,4.90
2023-05-01T20:45:39.534Z,12.80
2023-05-01T20:48:06.567Z,5.63
2023-05-01T20:50:33.521Z,4.97
2023-05-01T20:53:00.376Z,3.25
2023-05-01T20:55:28.253Z,5.68
2023-05-01T20:57:56.052Z,8.93
2023-05-01T21:00:22.941Z,4.45
2023-05-01T21:02:52.038Z,5.97
2023-05-01T21:05:19.018Z,4.60
2023-05-01T21:07:45.853Z,5.72
2023-05-01T21:10:14.557Z,6.53
2023-05-01T21:12:41.660Z,6.05
2023-05-01T21:15:09.215Z,5.53
2023-05-01T21:17:37.108Z,6.90
2023-05-01T21:20:10.177Z,5.28
2023-05-01T21:22:37.041Z,5.47
2023-05-01T21:25:04.354Z,4.25
2023-05-01T21:27:31.280Z,4.82
2023-05-01T21:29:59.549Z,6.75
2023-05-01T21:32:33.671Z,8.93
2023-05-01T21:35:01.089Z,4.63
2023-05-01T21:37:29.327Z,5.75
2023-05-01T21:39:59.490Z,5.20
2023-05-01T21:42:34.580Z,5.25
2023-05-01T21:45:07.018Z,11.27
2023-05-01T21:47:39.441Z,6.28
2023-05-01T21:50:09.837Z,4.63
2023-05-01T21:52:36.798Z,6.72
2023-05-01T21:55:08.798Z,4.25
2023-05-01T21:57:37.015Z,4.18
2023-05-01T22:00:09.426Z,4.97
2023-05-01T22:02:46.637Z,6.78
2023-05-01T22:05:15.515Z,5.78
2023-05-01T22:07:45.141Z,4.80
2023-05-01T22:10:14.428Z,5.50
2023-05-01T22:12:41.670Z,5.82
2023-05-01T22:15:12.725Z,3.78
2023-05-01T22:17:39.975Z,4.88
2023-05-01T22:20:07.793Z,4.70
2023-05-01T22:22:35.343Z,5.35
2023-05-01T22:25:03.086Z,4.63
2023-05-01T22:27:30.409Z,9.88
2023-05-01T22:29:57.673Z,6.15
2023-05-01T22:32:24.968Z,16.75
2023-05-01T22:34:51.848Z,13.30
2023-05-01T22:37:19.722Z,10.68
2023-05-01T22:39:46.666Z,10.05
2023-05-01T22:42:13.925Z,12.55
2023-05-01T22:44:41.040Z,11.10
2023-05-01T22:47:08.018Z,6.53
2023-05-01T22:49:34.821Z,6.30
2023-05-01T22:52:02.384Z,4.28
2023-05-01T22:54:29.271Z,4.20
2023-05-01T22:56:56.333Z,4.25
2023-05-01T22:59:23.285Z,4.65
2023-05-01T23:01:50.326Z,4.55
2023-05-01T23:04:17.372Z,5.47
2023-05-01T23:06:44.791Z,6.40
2023-05-01T23:09:12.085Z,4.57
2023-05-01T23:11:41.506Z,4.97
2023-05-01T23:14:08.372Z,4.30
2023-05-01T23:16:42.294Z,4.05
2023-05-01T23:19:23.579Z,5.03
2023-05-01T23:22:02.675Z,4.55
2023-05-01T23:24:51.138Z,6.00
2023-05-01T23:27:19.555Z,5.38
2023-05-01T23:29:54.863Z,5.20
2023-05-01T23:32:27.926Z,5.32
2023-05-01T23:34:55.935Z,6.30
2023-05-01T23:37:22.758Z,6.80
2023-05-01T23:39:49.611Z,4.63
2023-05-01T23:42:16.460Z,4.43
2023-05-01T23:44:43.306Z,5.28
2023-05-01T23:47:10.700Z,6.30
2023-05-01T23:49:38.229Z,6.13
2023-05-01T23:52:06.785Z,4.07
2023-05-01T23:54:33.685Z,11.48
2023-05-01T23:57:00.929Z,4.40
2023-05-01T23:59:27.956Z,5.05
